Terminal Aerodrome Forecast
Issued by NWS Corpus Christi, TX

Home | Current Version | Previous Version | Text Only | Print | Product List | Glossary On
Versions: 1 2 3 4 5 6 7 8 9 10 11 12 13 14 15 16 17 18 19 20 21
000
FTUS44 KCRP 240300 AAA
TAFVCT
TAF AMD
KVCT 240308Z 2403/2424 15012KT P6SM SCT015 SCT250
     FM240400 15010KT P6SM BKN015
     FM240700 16010KT 5SM BR OVC009
     FM241500 17012KT P6SM BKN015
     FM241800 17012KT P6SM BKN035=

USA.gov is the U.S. government's official web portal to all federal, state and local government web resources and services.